Terminal Aerodrome Forecast
Issued by NWS Omaha/Valley, NE

Home | Current Version | Previous Version | Text Only | Print | Product List | Glossary On
Versions: 1 2 3 4 5 6 7 8 9 10 11 12 13 14 15 16 17 18 19 20 21 22 23 24 25 26 27 28 29 30 31 32 33 34 35 36
000
FTUS43 KOAX 160520
TAFOFK
TAF
KOFK 160520Z 1606/1706 VRB03KT P6SM SKC
      TEMPO 1607/1610 5SM BR
     FM161000 17004KT 5SM BR SCT007
      TEMPO 1610/1614 2SM BR BKN025
     FM161500 19007KT P6SM SCT035
     FM161800 18012KT P6SM SCT250
     FM170000 16007KT P6SM BKN250=

USA.gov is the U.S. government's official web portal to all federal, state and local government web resources and services.